sensor_id;sensor_type;location;lat;lon;timestamp;P1;durP1;ratioP1;P2;durP2;ratioP2
21743;SDS011;11034;48.556;9.342;2023-11-19T00:01:46;5.22;;;3.95;;
21743;SDS011;11034;48.556;9.342;2023-11-19T00:04:16;4.10;;;3.33;;
21743;SDS011;11034;48.556;9.342;2023-11-19T00:06:44;5.40;;;3.15;;
21743;SDS011;11034;48.556;9.342;2023-11-19T00:09:12;4.93;;;2.85;;
21743;SDS011;11034;48.556;9.342;2023-11-19T00:11:43;3.22;;;2.55;;
21743;SDS011;11034;48.556;9.342;2023-11-19T00:14:19;4.50;;;2.70;;
21743;SDS011;11034;48.556;9.342;2023-11-19T00:16:48;3.03;;;2.45;;
21743;SDS011;11034;48.556;9.342;2023-11-19T00:19:18;3.22;;;2.30;;
21743;SDS011;11034;48.556;9.342;2023-11-19T00:21:47;3.30;;;2.25;;
21743;SDS011;11034;48.556;9.342;2023-11-19T00:24:15;2.58;;;2.13;;
21743;SDS011;11034;48.556;9.342;2023-11-19T00:26:44;2.42;;;1.80;;
21743;SDS011;11034;48.556;9.342;2023-11-19T00:29:13;3.10;;;1.60;;
21743;SDS011;11034;48.556;9.342;2023-11-19T00:31:41;2.10;;;1.55;;
21743;SDS011;11034;48.556;9.342;2023-11-19T00:34:09;2.63;;;1.70;;
21743;SDS011;11034;48.556;9.342;2023-11-19T00:36:39;2.33;;;1.40;;
21743;SDS011;11034;48.556;9.342;2023-11-19T00:39:08;1.95;;;1.60;;
21743;SDS011;11034;48.556;9.342;2023-11-19T00:41:36;1.98;;;1.35;;
21743;SDS011;11034;48.556;9.342;2023-11-19T00:44:06;2.17;;;1.38;;
21743;SDS011;11034;48.556;9.342;2023-11-19T00:46:34;2.47;;;1.45;;
21743;SDS011;11034;48.556;9.342;2023-11-19T00:49:03;2.15;;;1.20;;
21743;SDS011;11034;48.556;9.342;2023-11-19T00:51:32;3.25;;;1.10;;
21743;SDS011;11034;48.556;9.342;2023-11-19T00:54:02;1.15;;;0.90;;
21743;SDS011;11034;48.556;9.342;2023-11-19T00:56:30;2.28;;;0.80;;
21743;SDS011;11034;48.556;9.342;2023-11-19T00:58:59;2.15;;;1.00;;
21743;SDS011;11034;48.556;9.342;2023-11-19T01:01:27;2.80;;;0.90;;
21743;SDS011;11034;48.556;9.342;2023-11-19T01:03:56;1.13;;;0.80;;
21743;SDS011;11034;48.556;9.342;2023-11-19T01:06:27;0.80;;;0.60;;
21743;SDS011;11034;48.556;9.342;2023-11-19T01:08:56;0.63;;;0.63;;
21743;SDS011;11034;48.556;9.342;2023-11-19T01:11:26;1.30;;;0.70;;
21743;SDS011;11034;48.556;9.342;2023-11-19T01:13:54;1.73;;;0.70;;
21743;SDS011;11034;48.556;9.342;2023-11-19T01:16:23;0.90;;;0.60;;
21743;SDS011;11034;48.556;9.342;2023-11-19T01:18:51;0.43;;;0.43;;
21743;SDS011;11034;48.556;9.342;2023-11-19T01:21:37;2.15;;;0.57;;
21743;SDS011;11034;48.556;9.342;2023-11-19T01:24:06;2.00;;;0.70;;
21743;SDS011;11034;48.556;9.342;2023-11-19T01:26:37;1.02;;;0.50;;
21743;SDS011;11034;48.556;9.342;2023-11-19T01:29:06;0.85;;;0.60;;
21743;SDS011;11034;48.556;9.342;2023-11-19T01:31:35;0.50;;;0.50;;
21743;SDS011;11034;48.556;9.342;2023-11-19T01:34:04;0.57;;;0.50;;
21743;SDS011;11034;48.556;9.342;2023-11-19T01:36:32;2.40;;;0.80;;
21743;SDS011;11034;48.556;9.342;2023-11-19T01:39:01;0.47;;;0.47;;
21743;SDS011;11034;48.556;9.342;2023-11-19T01:41:33;1.13;;;0.50;;
21743;SDS011;11034;48.556;9.342;2023-11-19T01:44:04;0.88;;;0.52;;
21743;SDS011;11034;48.556;9.342;2023-11-19T01:46:34;0.60;;;0.60;;
21743;SDS011;11034;48.556;9.342;2023-11-19T01:49:03;0.50;;;0.50;;
21743;SDS011;11034;48.556;9.342;2023-11-19T01:51:33;1.05;;;0.43;;
21743;SDS011;11034;48.556;9.342;2023-11-19T01:54:01;0.65;;;0.50;;
21743;SDS011;11034;48.556;9.342;2023-11-19T01:56:30;0.43;;;0.43;;
21743;SDS011;11034;48.556;9.342;2023-11-19T01:58:59;2.55;;;0.60;;
21743;SDS011;11034;48.556;9.342;2023-11-19T02:01:29;0.40;;;0.40;;
21743;SDS011;11034;48.556;9.342;2023-11-19T02:04:01;1.33;;;0.40;;
21743;SDS011;11034;48.556;9.342;2023-11-19T02:06:30;0.68;;;0.50;;
21743;SDS011;11034;48.556;9.342;2023-11-19T02:09:02;0.52;;;0.52;;
21743;SDS011;11034;48.556;9.342;2023-11-19T02:11:34;0.57;;;0.40;;
21743;SDS011;11034;48.556;9.342;2023-11-19T02:14:02;0.50;;;0.50;;
21743;SDS011;11034;48.556;9.342;2023-11-19T02:16:32;3.40;;;0.40;;
21743;SDS011;11034;48.556;9.342;2023-11-19T02:19:01;0.65;;;0.50;;
21743;SDS011;11034;48.556;9.342;2023-11-19T02:21:30;1.10;;;0.40;;
21743;SDS011;11034;48.556;9.342;2023-11-19T02:23:58;0.60;;;0.52;;
21743;SDS011;11034;48.556;9.342;2023-11-19T02:26:30;0.50;;;0.50;;
21743;SDS011;11034;48.556;9.342;2023-11-19T02:29:06;0.68;;;0.43;;
21743;SDS011;11034;48.556;9.342;2023-11-19T02:31:34;0.65;;;0.60;;
21743;SDS011;11034;48.556;9.342;2023-11-19T02:34:02;1.58;;;0.50;;
21743;SDS011;11034;48.556;9.342;2023-11-19T02:36:32;1.02;;;0.50;;
21743;SDS011;11034;48.556;9.342;2023-11-19T02:39:00;0.70;;;0.60;;
21743;SDS011;11034;48.556;9.342;2023-11-19T02:41:31;0.40;;;0.40;;
21743;SDS011;11034;48.556;9.342;2023-11-19T02:44:11;0.50;;;0.50;;
21743;SDS011;11034;48.556;9.342;2023-11-19T02:46:40;1.60;;;0.50;;
21743;SDS011;11034;48.556;9.342;2023-11-19T02:49:09;0.73;;;0.68;;
21743;SDS011;11034;48.556;9.342;2023-11-19T02:51:37;0.75;;;0.60;;
21743;SDS011;11034;48.556;9.342;2023-11-19T02:54:05;0.93;;;0.52;;
21743;SDS011;11034;48.556;9.342;2023-11-19T02:56:33;0.75;;;0.52;;
21743;SDS011;11034;48.556;9.342;2023-11-19T02:59:03;1.48;;;0.60;;
21743;SDS011;11034;48.556;9.342;2023-11-19T03:01:42;0.57;;;0.50;;
21743;SDS011;11034;48.556;9.342;2023-11-19T03:04:16;0.60;;;0.50;;
21743;SDS011;11034;48.556;9.342;2023-11-19T03:06:47;0.68;;;0.45;;
21743;SDS011;11034;48.556;9.342;2023-11-19T03:09:15;0.63;;;0.60;;
21743;SDS011;11034;48.556;9.342;2023-11-19T03:11:43;1.77;;;0.65;;
21743;SDS011;11034;48.556;9.342;2023-11-19T03:14:11;2.03;;;0.70;;
21743;SDS011;11034;48.556;9.342;2023-11-19T03:16:39;0.75;;;0.68;;
21743;SDS011;11034;48.556;9.342;2023-11-19T03:19:09;1.52;;;0.70;;
21743;SDS011;11034;48.556;9.342;2023-11-19T03:21:37;2.17;;;0.80;;
21743;SDS011;11034;48.556;9.342;2023-11-19T03:24:05;0.82;;;0.60;;
21743;SDS011;11034;48.556;9.342;2023-11-19T03:26:34;1.40;;;0.80;;
21743;SDS011;11034;48.556;9.342;2023-11-19T03:29:05;0.85;;;0.80;;
21743;SDS011;11034;48.556;9.342;2023-11-19T03:31:34;0.85;;;0.70;;
21743;SDS011;11034;48.556;9.342;2023-11-19T03:34:02;1.65;;;0.60;;
21743;SDS011;11034;48.556;9.342;2023-11-19T03:36:35;1.27;;;0.90;;
21743;SDS011;11034;48.556;9.342;2023-11-19T03:39:03;1.02;;;0.70;;
21743;SDS011;11034;48.556;9.342;2023-11-19T03:41:31;1.95;;;0.85;;
21743;SDS011;11034;48.556;9.342;2023-11-19T03:44:03;1.15;;;0.80;;
21743;SDS011;11034;48.556;9.342;2023-11-19T03:46:31;1.08;;;0.90;;
21743;SDS011;11034;48.556;9.342;2023-11-19T03:49:01;1.60;;;0.85;;
21743;SDS011;11034;48.556;9.342;2023-11-19T03:51:31;1.08;;;0.80;;
21743;SDS011;11034;48.556;9.342;2023-11-19T03:54:02;2.38;;;1.00;;
21743;SDS011;11034;48.556;9.342;2023-11-19T03:56:30;1.30;;;0.60;;
21743;SDS011;11034;48.556;9.342;2023-11-19T03:58:59;0.93;;;0.68;;
21743;SDS011;11034;48.556;9.342;2023-11-19T04:01:27;1.27;;;0.70;;
21743;SDS011;11034;48.556;9.342;2023-11-19T04:03:56;3.67;;;0.63;;
21743;SDS011;11034;48.556;9.342;2023-11-19T04:06:25;0.60;;;0.60;;
21743;SDS011;11034;48.556;9.342;2023-11-19T04:08:54;1.05;;;0.68;;
21743;SDS011;11034;48.556;9.342;2023-11-19T04:11:23;0.60;;;0.60;;
21743;SDS011;11034;48.556;9.342;2023-11-19T04:13:52;0.50;;;0.50;;
21743;SDS011;11034;48.556;9.342;2023-11-19T04:16:25;0.60;;;0.60;;
21743;SDS011;11034;48.556;9.342;2023-11-19T04:18:54;1.65;;;0.60;;
21743;SDS011;11034;48.556;9.342;2023-11-19T04:21:23;2.40;;;0.60;;
21743;SDS011;11034;48.556;9.342;2023-11-19T04:23:51;0.60;;;0.60;;
21743;SDS011;11034;48.556;9.342;2023-11-19T04:26:20;0.32;;;0.30;;
21743;SDS011;11034;48.556;9.342;2023-11-19T04:28:49;0.40;;;0.40;;
21743;SDS011;11034;48.556;9.342;2023-11-19T04:31:18;1.42;;;0.40;;
21743;SDS011;11034;48.556;9.342;2023-11-19T04:33:46;0.82;;;0.40;;
21743;SDS011;11034;48.556;9.342;2023-11-19T04:36:18;2.05;;;0.43;;
21743;SDS011;11034;48.556;9.342;2023-11-19T04:38:47;0.35;;;0.35;;
21743;SDS011;11034;48.556;9.342;2023-11-19T04:41:15;0.40;;;0.40;;
21743;SDS011;11034;48.556;9.342;2023-11-19T04:43:44;0.43;;;0.43;;
21743;SDS011;11034;48.556;9.342;2023-11-19T04:46:13;0.32;;;0.32;;
21743;SDS011;11034;48.556;9.342;2023-11-19T04:48:42;0.30;;;0.30;;
21743;SDS011;11034;48.556;9.342;2023-11-19T04:51:10;0.73;;;0.32;;
21743;SDS011;11034;48.556;9.342;2023-11-19T04:53:39;0.52;;;0.45;;
21743;SDS011;11034;48.556;9.342;2023-11-19T04:56:08;1.17;;;0.40;;
21743;SDS011;11034;48.556;9.342;2023-11-19T04:58:58;0.40;;;0.35;;
21743;SDS011;11034;48.556;9.342;2023-11-19T05:01:38;1.58;;;0.40;;
21743;SDS011;11034;48.556;9.342;2023-11-19T05:04:28;0.25;;;0.25;;
21743;SDS011;11034;48.556;9.342;2023-11-19T05:07:40;0.40;;;0.30;;
21743;SDS011;11034;48.556;9.342;2023-11-19T05:10:51;0.30;;;0.30;;
21743;SDS011;11034;48.556;9.342;2023-11-19T05:14:44;0.38;;;0.38;;
21743;SDS011;11034;48.556;9.342;2023-11-19T05:17:56;0.55;;;0.30;;
21743;SDS011;11034;48.556;9.342;2023-11-19T05:21:09;2.60;;;0.40;;
21743;SDS011;11034;48.556;9.342;2023-11-19T05:24:57;1.05;;;0.40;;
21743;SDS011;11034;48.556;9.342;2023-11-19T05:28:08;3.13;;;0.35;;
21743;SDS011;11034;48.556;9.342;2023-11-19T05:31:36;1.60;;;0.30;;
21743;SDS011;11034;48.556;9.342;2023-11-19T05:35:24;0.68;;;0.30;;
21743;SDS011;11034;48.556;9.342;2023-11-19T05:42:42;1.73;;;0.35;;
21743;SDS011;11034;48.556;9.342;2023-11-19T05:45:52;0.90;;;0.40;;
21743;SDS011;11034;48.556;9.342;2023-11-19T05:49:29;0.20;;;0.20;;
21743;SDS011;11034;48.556;9.342;2023-11-19T05:52:47;0.52;;;0.22;;
21743;SDS011;11034;48.556;9.342;2023-11-19T05:55:21;0.55;;;0.30;;
21743;SDS011;11034;48.556;9.342;2023-11-19T05:57:54;0.20;;;0.20;;
21743;SDS011;11034;48.556;9.342;2023-11-19T06:00:28;0.20;;;0.20;;
21743;SDS011;11034;48.556;9.342;2023-11-19T06:03:02;0.40;;;0.20;;
21743;SDS011;11034;48.556;9.342;2023-11-19T06:05:35;0.40;;;0.40;;
21743;SDS011;11034;48.556;9.342;2023-11-19T06:08:10;1.95;;;0.40;;
21743;SDS011;11034;48.556;9.342;2023-11-19T06:10:42;0.50;;;0.20;;
21743;SDS011;11034;48.556;9.342;2023-11-19T06:13:16;0.50;;;0.25;;
21743;SDS011;11034;48.556;9.342;2023-11-19T06:15:50;3.05;;;0.35;;
21743;SDS011;11034;48.556;9.342;2023-11-19T06:18:22;0.88;;;0.30;;
21743;SDS011;11034;48.556;9.342;2023-11-19T06:20:54;0.63;;;0.30;;
21743;SDS011;11034;48.556;9.342;2023-11-19T06:23:27;1.35;;;0.25;;
21743;SDS011;11034;48.556;9.342;2023-11-19T06:25:56;0.80;;;0.35;;
21743;SDS011;11034;48.556;9.342;2023-11-19T06:28:28;0.30;;;0.20;;
21743;SDS011;11034;48.556;9.342;2023-11-19T06:30:59;0.30;;;0.30;;
21743;SDS011;11034;48.556;9.342;2023-11-19T06:33:28;0.13;;;0.13;;
21743;SDS011;11034;48.556;9.342;2023-11-19T06:35:58;0.20;;;0.20;;
21743;SDS011;11034;48.556;9.342;2023-11-19T06:38:30;0.30;;;0.20;;
21743;SDS011;11034;48.556;9.342;2023-11-19T06:41:01;0.30;;;0.30;;
21743;SDS011;11034;48.556;9.342;2023-11-19T06:43:30;0.82;;;0.25;;
21743;SDS011;11034;48.556;9.342;2023-11-19T06:46:03;0.77;;;0.30;;
21743;SDS011;11034;48.556;9.342;2023-11-19T06:48:33;0.20;;;0.20;;
21743;SDS011;11034;48.556;9.342;2023-11-19T06:51:04;1.95;;;0.20;;
21743;SDS011;11034;48.556;9.342;2023-11-19T06:53:37;1.52;;;0.35;;
21743;SDS011;11034;48.556;9.342;2023-11-19T06:56:17;0.93;;;0.40;;
21743;SDS011;11034;48.556;9.342;2023-11-19T06:58:48;0.80;;;0.30;;
21743;SDS011;11034;48.556;9.342;2023-11-19T07:01:20;0.73;;;0.40;;
21743;SDS011;11034;48.556;9.342;2023-11-19T07:03:52;0.95;;;0.20;;
21743;SDS011;11034;48.556;9.342;2023-11-19T07:06:24;1.05;;;0.30;;
21743;SDS011;11034;48.556;9.342;2023-11-19T07:09:00;0.30;;;0.30;;
21743;SDS011;11034;48.556;9.342;2023-11-19T07:11:36;1.27;;;0.25;;
21743;SDS011;11034;48.556;9.342;2023-11-19T07:14:08;0.80;;;0.70;;
21743;SDS011;11034;48.556;9.342;2023-11-19T07:16:39;1.35;;;0.80;;
21743;SDS011;11034;48.556;9.342;2023-11-19T07:19:12;0.50;;;0.40;;
21743;SDS011;11034;48.556;9.342;2023-11-19T07:21:43;0.17;;;0.17;;
21743;SDS011;11034;48.556;9.342;2023-11-19T07:24:16;0.52;;;0.30;;
21743;SDS011;11034;48.556;9.342;2023-11-19T07:26:48;2.67;;;0.98;;
21743;SDS011;11034;48.556;9.342;2023-11-19T07:29:22;0.30;;;0.10;;
21743;SDS011;11034;48.556;9.342;2023-11-19T07:31:56;0.25;;;0.20;;
21743;SDS011;11034;48.556;9.342;2023-11-19T07:34:34;2.58;;;1.13;;
21743;SDS011;11034;48.556;9.342;2023-11-19T07:37:07;0.50;;;0.40;;
21743;SDS011;11034;48.556;9.342;2023-11-19T07:39:40;0.65;;;0.32;;
21743;SDS011;11034;48.556;9.342;2023-11-19T07:42:12;1.65;;;0.35;;
21743;SDS011;11034;48.556;9.342;2023-11-19T07:44:44;0.90;;;0.20;;
21743;SDS011;11034;48.556;9.342;2023-11-19T07:47:15;0.50;;;0.50;;
21743;SDS011;11034;48.556;9.342;2023-11-19T07:49:50;1.48;;;0.50;;
21743;SDS011;11034;48.556;9.342;2023-11-19T07:52:23;0.82;;;0.40;;
21743;SDS011;11034;48.556;9.342;2023-11-19T07:54:57;0.50;;;0.50;;
21743;SDS011;11034;48.556;9.342;2023-11-19T07:57:29;0.63;;;0.50;;
21743;SDS011;11034;48.556;9.342;2023-11-19T08:00:00;0.40;;;0.40;;
21743;SDS011;11034;48.556;9.342;2023-11-19T08:02:33;0.50;;;0.50;;
21743;SDS011;11034;48.556;9.342;2023-11-19T08:05:05;0.60;;;0.50;;
21743;SDS011;11034;48.556;9.342;2023-11-19T08:07:37;0.93;;;0.50;;
21743;SDS011;11034;48.556;9.342;2023-11-19T08:10:08;0.63;;;0.40;;
21743;SDS011;11034;48.556;9.342;2023-11-19T08:12:44;0.52;;;0.50;;
21743;SDS011;11034;48.556;9.342;2023-11-19T08:15:16;0.75;;;0.50;;
21743;SDS011;11034;48.556;9.342;2023-11-19T08:17:50;1.00;;;0.60;;
21743;SDS011;11034;48.556;9.342;2023-11-19T08:20:21;1.70;;;0.40;;
21743;SDS011;11034;48.556;9.342;2023-11-19T08:22:51;1.13;;;0.32;;
21743;SDS011;11034;48.556;9.342;2023-11-19T08:25:24;1.85;;;0.50;;
21743;SDS011;11034;48.556;9.342;2023-11-19T08:27:53;0.50;;;0.40;;
21743;SDS011;11034;48.556;9.342;2023-11-19T08:30:22;1.02;;;0.40;;
21743;SDS011;11034;48.556;9.342;2023-11-19T08:32:50;0.40;;;0.40;;
21743;SDS011;11034;48.556;9.342;2023-11-19T08:35:18;0.80;;;0.50;;
21743;SDS011;11034;48.556;9.342;2023-11-19T08:37:46;0.25;;;0.25;;
21743;SDS011;11034;48.556;9.342;2023-11-19T08:40:20;0.68;;;0.50;;
21743;SDS011;11034;48.556;9.342;2023-11-19T08:42:49;0.50;;;0.32;;
21743;SDS011;11034;48.556;9.342;2023-11-19T08:45:17;2.28;;;0.70;;
21743;SDS011;11034;48.556;9.342;2023-11-19T08:47:45;0.60;;;0.40;;
21743;SDS011;11034;48.556;9.342;2023-11-19T08:50:13;1.23;;;0.50;;
21743;SDS011;11034;48.556;9.342;2023-11-19T08:52:45;0.35;;;0.35;;
21743;SDS011;11034;48.556;9.342;2023-11-19T08:55:13;0.57;;;0.40;;
21743;SDS011;11034;48.556;9.342;2023-11-19T08:57:41;0.30;;;0.30;;
21743;SDS011;11034;48.556;9.342;2023-11-19T09:00:10;2.47;;;0.57;;
21743;SDS011;11034;48.556;9.342;2023-11-19T09:02:41;0.30;;;0.30;;
21743;SDS011;11034;48.556;9.342;2023-11-19T09:05:10;1.02;;;0.40;;
21743;SDS011;11034;48.556;9.342;2023-11-19T09:07:39;1.17;;;0.50;;
21743;SDS011;11034;48.556;9.342;2023-11-19T09:10:08;0.77;;;0.30;;
21743;SDS011;11034;48.556;9.342;2023-11-19T09:12:37;0.68;;;0.30;;
21743;SDS011;11034;48.556;9.342;2023-11-19T09:15:06;0.30;;;0.28;;
21743;SDS011;11034;48.556;9.342;2023-11-19T09:17:38;0.30;;;0.30;;
21743;SDS011;11034;48.556;9.342;2023-11-19T09:20:07;1.58;;;0.50;;
21743;SDS011;11034;48.556;9.342;2023-11-19T09:22:39;0.40;;;0.35;;
21743;SDS011;11034;48.556;9.342;2023-11-19T09:25:07;0.57;;;0.35;;
21743;SDS011;11034;48.556;9.342;2023-11-19T09:27:35;0.85;;;0.40;;
21743;SDS011;11034;48.556;9.342;2023-11-19T09:30:04;0.40;;;0.40;;
21743;SDS011;11034;48.556;9.342;2023-11-19T09:32:34;0.57;;;0.35;;
21743;SDS011;11034;48.556;9.342;2023-11-19T09:35:05;1.23;;;0.50;;
21743;SDS011;11034;48.556;9.342;2023-11-19T09:37:34;0.40;;;0.40;;
21743;SDS011;11034;48.556;9.342;2023-11-19T09:40:03;0.30;;;0.30;;
21743;SDS011;11034;48.556;9.342;2023-11-19T09:42:32;1.00;;;0.70;;
21743;SDS011;11034;48.556;9.342;2023-11-19T09:45:10;1.38;;;0.50;;
21743;SDS011;11034;48.556;9.342;2023-11-19T09:47:40;0.70;;;0.70;;
21743;SDS011;11034;48.556;9.342;2023-11-19T09:50:14;1.42;;;0.50;;
21743;SDS011;11034;48.556;9.342;2023-11-19T09:52:45;3.35;;;0.55;;
21743;SDS011;11034;48.556;9.342;2023-11-19T09:55:13;1.17;;;0.52;;
21743;SDS011;11034;48.556;9.342;2023-11-19T09:57:42;0.70;;;0.70;;
21743;SDS011;11034;48.556;9.342;2023-11-19T10:00:12;0.75;;;0.50;;
21743;SDS011;11034;48.556;9.342;2023-11-19T10:02:42;0.47;;;0.40;;
21743;SDS011;11034;48.556;9.342;2023-11-19T10:05:15;0.38;;;0.38;;
21743;SDS011;11034;48.556;9.342;2023-11-19T10:07:43;0.45;;;0.43;;
21743;SDS011;11034;48.556;9.342;2023-11-19T10:10:12;1.42;;;0.32;;
21743;SDS011;11034;48.556;9.342;2023-11-19T10:12:44;1.13;;;0.50;;
21743;SDS011;11034;48.556;9.342;2023-11-19T10:15:20;0.50;;;0.50;;
21743;SDS011;11034;48.556;9.342;2023-11-19T10:17:48;0.77;;;0.50;;
21743;SDS011;11034;48.556;9.342;2023-11-19T10:20:18;0.65;;;0.50;;
21743;SDS011;11034;48.556;9.342;2023-11-19T10:22:46;0.52;;;0.50;;
21743;SDS011;11034;48.556;9.342;2023-11-19T10:25:21;0.70;;;0.50;;
21743;SDS011;11034;48.556;9.342;2023-11-19T10:27:51;1.10;;;0.40;;
21743;SDS011;11034;48.556;9.342;2023-11-19T10:30:20;1.10;;;0.40;;
21743;SDS011;11034;48.556;9.342;2023-11-19T10:33:04;0.52;;;0.40;;
21743;SDS011;11034;48.556;9.342;2023-11-19T10:35:35;0.40;;;0.40;;
21743;SDS011;11034;48.556;9.342;2023-11-19T10:38:13;0.68;;;0.40;;
21743;SDS011;11034;48.556;9.342;2023-11-19T10:40:42;0.40;;;0.30;;
21743;SDS011;11034;48.556;9.342;2023-11-19T10:43:10;1.23;;;0.63;;
21743;SDS011;11034;48.556;9.342;2023-11-19T10:45:40;0.70;;;0.50;;
21743;SDS011;11034;48.556;9.342;2023-11-19T10:48:11;1.02;;;0.55;;
21743;SDS011;11034;48.556;9.342;2023-11-19T10:50:45;1.30;;;0.50;;
21743;SDS011;11034;48.556;9.342;2023-11-19T10:53:17;0.88;;;0.50;;
21743;SDS011;11034;48.556;9.342;2023-11-19T10:55:46;3.63;;;0.60;;
21743;SDS011;11034;48.556;9.342;2023-11-19T10:58:15;1.13;;;0.60;;
21743;SDS011;11034;48.556;9.342;2023-11-19T11:00:47;2.03;;;0.63;;
21743;SDS011;11034;48.556;9.342;2023-11-19T11:03:20;0.90;;;0.65;;
21743;SDS011;11034;48.556;9.342;2023-11-19T11:05:53;0.50;;;0.50;;
21743;SDS011;11034;48.556;9.342;2023-11-19T11:08:21;1.48;;;0.52;;
21743;SDS011;11034;48.556;9.342;2023-11-19T11:10:52;1.60;;;0.60;;
21743;SDS011;11034;48.556;9.342;2023-11-19T11:13:23;0.80;;;0.50;;
21743;SDS011;11034;48.556;9.342;2023-11-19T11:15:55;0.90;;;0.45;;
21743;SDS011;11034;48.556;9.342;2023-11-19T11:18:24;1.17;;;0.60;;
21743;SDS011;11034;48.556;9.342;2023-11-19T11:20:56;2.10;;;0.50;;
21743;SDS011;11034;48.556;9.342;2023-11-19T11:23:35;0.40;;;0.40;;
21743;SDS011;11034;48.556;9.342;2023-11-19T11:26:20;2.95;;;0.50;;
21743;SDS011;11034;48.556;9.342;2023-11-19T11:28:59;0.88;;;0.50;;
21743;SDS011;11034;48.556;9.342;2023-11-19T11:31:32;0.57;;;0.45;;
21743;SDS011;11034;48.556;9.342;2023-11-19T11:34:15;1.00;;;0.50;;
21743;SDS011;11034;48.556;9.342;2023-11-19T11:36:49;1.75;;;0.50;;
21743;SDS011;11034;48.556;9.342;2023-11-19T11:39:22;0.63;;;0.43;;
21743;SDS011;11034;48.556;9.342;2023-11-19T11:47:18;0.80;;;0.50;;
21743;SDS011;11034;48.556;9.342;2023-11-19T11:49:46;1.58;;;0.50;;
21743;SDS011;11034;48.556;9.342;2023-11-19T11:52:17;0.77;;;0.50;;
21743;SDS011;11034;48.556;9.342;2023-11-19T11:54:46;1.63;;;0.38;;
21743;SDS011;11034;48.556;9.342;2023-11-19T11:57:15;1.92;;;0.50;;
21743;SDS011;11034;48.556;9.342;2023-11-19T11:59:50;1.73;;;0.50;;
21743;SDS011;11034;48.556;9.342;2023-11-19T12:02:19;1.58;;;0.40;;
21743;SDS011;11034;48.556;9.342;2023-11-19T12:04:48;0.55;;;0.30;;
21743;SDS011;11034;48.556;9.342;2023-11-19T12:07:20;0.30;;;0.20;;
21743;SDS011;11034;48.556;9.342;2023-11-19T12:09:51;2.42;;;0.30;;
21743;SDS011;11034;48.556;9.342;2023-11-19T12:12:21;0.90;;;0.40;;
21743;SDS011;11034;48.556;9.342;2023-11-19T12:15:06;1.95;;;0.50;;
21743;SDS011;11034;48.556;9.342;2023-11-19T12:17:37;0.68;;;0.40;;
21743;SDS011;11034;48.556;9.342;2023-11-19T12:20:07;0.50;;;0.50;;
21743;SDS011;11034;48.556;9.342;2023-11-19T12:22:37;1.40;;;0.50;;
21743;SDS011;11034;48.556;9.342;2023-11-19T12:25:06;1.85;;;0.65;;
21743;SDS011;11034;48.556;9.342;2023-11-19T12:27:35;1.27;;;0.60;;
21743;SDS011;11034;48.556;9.342;2023-11-19T12:30:04;0.68;;;0.47;;
21743;SDS011;11034;48.556;9.342;2023-11-19T12:32:39;0.43;;;0.43;;
21743;SDS011;11034;48.556;9.342;2023-11-19T12:35:08;0.50;;;0.40;;
21743;SDS011;11034;48.556;9.342;2023-11-19T12:37:40;1.33;;;0.50;;
21743;SDS011;11034;48.556;9.342;2023-11-19T12:40:11;2.13;;;0.90;;
21743;SDS011;11034;48.556;9.342;2023-11-19T12:42:44;1.20;;;0.80;;
21743;SDS011;11034;48.556;9.342;2023-11-19T12:45:12;0.88;;;0.50;;
21743;SDS011;11034;48.556;9.342;2023-11-19T12:47:42;0.40;;;0.38;;
21743;SDS011;11034;48.556;9.342;2023-11-19T12:50:16;1.42;;;0.50;;
21743;SDS011;11034;48.556;9.342;2023-11-19T12:52:56;0.65;;;0.55;;
21743;SDS011;11034;48.556;9.342;2023-11-19T12:55:25;1.85;;;0.73;;
21743;SDS011;11034;48.556;9.342;2023-11-19T12:57:56;1.73;;;0.55;;
21743;SDS011;11034;48.556;9.342;2023-11-19T13:00:26;1.35;;;0.70;;
21743;SDS011;11034;48.556;9.342;2023-11-19T13:02:55;0.90;;;0.50;;
21743;SDS011;11034;48.556;9.342;2023-11-19T13:09:04;0.85;;;0.40;;
21743;SDS011;11034;48.556;9.342;2023-11-19T13:11:33;0.65;;;0.57;;
21743;SDS011;11034;48.556;9.342;2023-11-19T13:14:04;0.82;;;0.50;;
21743;SDS011;11034;48.556;9.342;2023-11-19T13:16:39;1.02;;;0.60;;
21743;SDS011;11034;48.556;9.342;2023-11-19T13:19:19;2.08;;;0.70;;
21743;SDS011;11034;48.556;9.342;2023-11-19T13:21:55;2.38;;;1.23;;
21743;SDS011;11034;48.556;9.342;2023-11-19T13:24:25;0.80;;;0.60;;
21743;SDS011;11034;48.556;9.342;2023-11-19T13:26:56;4.43;;;0.60;;
21743;SDS011;11034;48.556;9.342;2023-11-19T13:29:34;0.73;;;0.50;;
21743;SDS011;11034;48.556;9.342;2023-11-19T13:32:06;1.35;;;0.40;;
21743;SDS011;11034;48.556;9.342;2023-11-19T13:34:37;1.90;;;0.80;;
21743;SDS011;11034;48.556;9.342;2023-11-19T13:37:07;1.05;;;0.65;;
21743;SDS011;11034;48.556;9.342;2023-11-19T13:39:41;0.93;;;0.70;;
21743;SDS011;11034;48.556;9.342;2023-11-19T13:42:14;1.10;;;0.65;;
21743;SDS011;11034;48.556;9.342;2023-11-19T13:44:48;0.80;;;0.60;;
21743;SDS011;11034;48.556;9.342;2023-11-19T13:47:21;0.70;;;0.60;;
21743;SDS011;11034;48.556;9.342;2023-11-19T13:49:50;0.90;;;0.60;;
21743;SDS011;11034;48.556;9.342;2023-11-19T13:52:19;1.65;;;0.93;;
21743;SDS011;11034;48.556;9.342;2023-11-19T13:54:53;3.00;;;0.70;;
21743;SDS011;11034;48.556;9.342;2023-11-19T13:57:22;1.77;;;0.80;;
21743;SDS011;11034;48.556;9.342;2023-11-19T13:59:51;1.35;;;0.80;;
21743;SDS011;11034;48.556;9.342;2023-11-19T14:02:19;1.60;;;0.57;;
21743;SDS011;11034;48.556;9.342;2023-11-19T14:04:47;0.80;;;0.70;;
21743;SDS011;11034;48.556;9.342;2023-11-19T14:07:15;0.82;;;0.60;;
21743;SDS011;11034;48.556;9.342;2023-11-19T14:09:44;2.67;;;0.70;;
21743;SDS011;11034;48.556;9.342;2023-11-19T14:12:14;0.90;;;0.60;;
21743;SDS011;11034;48.556;9.342;2023-11-19T14:14:42;1.58;;;0.68;;
21743;SDS011;11034;48.556;9.342;2023-11-19T14:17:10;3.40;;;0.60;;
21743;SDS011;11034;48.556;9.342;2023-11-19T14:19:40;1.08;;;0.80;;
21743;SDS011;11034;48.556;9.342;2023-11-19T14:22:08;0.60;;;0.60;;
21743;SDS011;11034;48.556;9.342;2023-11-19T14:24:36;1.80;;;0.50;;
21743;SDS011;11034;48.556;9.342;2023-11-19T14:27:06;2.83;;;0.63;;
21743;SDS011;11034;48.556;9.342;2023-11-19T14:29:35;1.80;;;0.70;;
21743;SDS011;11034;48.556;9.342;2023-11-19T14:32:04;1.50;;;0.70;;
21743;SDS011;11034;48.556;9.342;2023-11-19T14:34:48;2.05;;;0.80;;
21743;SDS011;11034;48.556;9.342;2023-11-19T14:37:18;1.05;;;0.80;;
21743;SDS011;11034;48.556;9.342;2023-11-19T14:39:46;1.15;;;0.70;;
21743;SDS011;11034;48.556;9.342;2023-11-19T14:42:17;3.88;;;0.98;;
21743;SDS011;11034;48.556;9.342;2023-11-19T14:44:50;3.55;;;0.80;;
21743;SDS011;11034;48.556;9.342;2023-11-19T14:51:03;2.15;;;0.70;;
21743;SDS011;11034;48.556;9.342;2023-11-19T14:54:11;1.27;;;0.70;;
21743;SDS011;11034;48.556;9.342;2023-11-19T14:56:41;1.25;;;0.47;;
21743;SDS011;11034;48.556;9.342;2023-11-19T14:59:12;1.20;;;0.50;;
21743;SDS011;11034;48.556;9.342;2023-11-19T15:01:42;3.90;;;0.63;;
21743;SDS011;11034;48.556;9.342;2023-11-19T15:04:12;0.93;;;0.45;;
21743;SDS011;11034;48.556;9.342;2023-11-19T15:06:41;2.85;;;0.70;;
21743;SDS011;11034;48.556;9.342;2023-11-19T15:09:15;2.40;;;0.50;;
21743;SDS011;11034;48.556;9.342;2023-11-19T15:11:44;1.35;;;0.80;;
21743;SDS011;11034;48.556;9.342;2023-11-19T15:14:24;2.08;;;0.80;;
21743;SDS011;11034;48.556;9.342;2023-11-19T15:16:55;1.60;;;0.70;;
21743;SDS011;11034;48.556;9.342;2023-11-19T15:19:24;1.05;;;0.70;;
21743;SDS011;11034;48.556;9.342;2023-11-19T15:21:52;3.88;;;0.80;;
21743;SDS011;11034;48.556;9.342;2023-11-19T15:24:21;2.25;;;0.70;;
21743;SDS011;11034;48.556;9.342;2023-11-19T15:26:51;1.23;;;0.70;;
21743;SDS011;11034;48.556;9.342;2023-11-19T15:29:39;1.30;;;0.65;;
21743;SDS011;11034;48.556;9.342;2023-11-19T15:32:09;5.38;;;1.50;;
21743;SDS011;11034;48.556;9.342;2023-11-19T15:34:37;0.63;;;0.57;;
21743;SDS011;11034;48.556;9.342;2023-11-19T15:37:08;1.48;;;0.60;;
21743;SDS011;11034;48.556;9.342;2023-11-19T15:39:38;2.20;;;0.60;;